createdAt,value
2018-11-23T00:00:16.834Z,59.79
2018-11-23T00:02:09.814Z,59.50
2018-11-23T00:03:09.861Z,59.88
2018-11-23T00:05:02.837Z,60.07
2018-11-23T00:06:02.891Z,60.93
2018-11-23T00:07:55.867Z,60.45
2018-11-23T00:08:55.916Z,60.17
2018-11-23T00:10:48.885Z,59.22
2018-11-23T00:11:48.940Z,59.60
2018-11-23T00:13:41.921Z,58.47
2018-11-23T00:14:41.966Z,58.28
2018-11-23T00:16:34.958Z,58.47
2018-11-23T00:17:34.997Z,58.18
2018-11-23T00:19:27.982Z,57.71
2018-11-23T00:20:28.036Z,57.33
2018-11-23T00:22:21.012Z,56.76
2018-11-23T00:23:21.060Z,56.48
2018-11-23T00:25:14.033Z,56.38
2018-11-23T00:26:14.084Z,56.38
2018-11-23T00:28:07.066Z,56.76
2018-11-23T00:29:07.111Z,56.67
2018-11-23T00:31:00.085Z,56.85
2018-11-23T00:32:00.137Z,57.07
2018-11-23T00:33:53.624Z,58.37
2018-11-23T00:34:53.674Z,58.78
2018-11-23T00:36:46.650Z,59.34
2018-11-23T00:37:46.702Z,59.53
2018-11-23T00:39:39.672Z,59.53
2018-11-23T00:40:39.727Z,59.34
2018-11-23T00:42:32.711Z,59.16
2018-11-23T00:43:32.761Z,58.49
2018-11-23T00:45:25.730Z,58.59
2018-11-23T00:46:25.784Z,58.49
2018-11-23T00:48:18.764Z,58.59
2018-11-23T00:49:18.813Z,57.83
2018-11-23T00:51:11.783Z,56.98
2018-11-23T00:52:11.838Z,56.70
2018-11-23T00:54:04.818Z,56.51
2018-11-23T00:55:04.864Z,56.51
2018-11-23T00:56:57.842Z,55.84
2018-11-23T00:57:57.890Z,55.84
2018-11-23T00:59:50.862Z,55.84
2018-11-23T01:00:50.916Z,55.84
2018-11-23T01:02:43.912Z,55.84
2018-11-23T01:03:43.950Z,54.99
2018-11-23T01:05:36.928Z,55.08
2018-11-23T01:06:36.978Z,54.71
2018-11-23T01:08:29.960Z,54.33
2018-11-23T01:09:30.005Z,53.95
2018-11-23T01:11:22.982Z,54.23
2018-11-23T01:12:23.037Z,54.52
2018-11-23T01:14:16.025Z,54.04
2018-11-23T01:15:16.068Z,53.76
2018-11-23T01:17:09.050Z,54.04
2018-11-23T01:18:09.094Z,53.66
2018-11-23T01:20:02.072Z,53.38
2018-11-23T01:21:02.126Z,53.38
2018-11-23T01:22:55.107Z,53.47
2018-11-23T01:23:55.157Z,53.47
2018-11-23T01:25:48.130Z,53.28
2018-11-23T01:26:48.184Z,53.28
2018-11-23T01:28:41.167Z,53.09
2018-11-23T01:29:41.209Z,53.28
2018-11-23T01:31:34.184Z,52.91
2018-11-23T01:32:34.239Z,52.53
2018-11-23T01:34:27.728Z,52.72
2018-11-23T01:35:27.774Z,52.44
2018-11-23T01:37:20.760Z,52.15
2018-11-23T01:38:20.803Z,52.53
2018-11-23T01:40:13.786Z,52.62
2018-11-23T01:41:13.845Z,52.91
2018-11-23T01:43:06.820Z,52.81
2018-11-23T01:44:06.867Z,52.53
2018-11-23T01:45:59.841Z,53.09
2018-11-23T01:46:59.897Z,52.62
2018-11-23T01:48:52.877Z,52.91
2018-11-23T01:49:52.932Z,53.00
2018-11-23T01:51:45.899Z,52.53
2018-11-23T01:52:45.957Z,52.34
2018-11-23T01:54:38.940Z,52.53
2018-11-23T01:55:38.983Z,52.81
2018-11-23T01:57:31.964Z,52.34
2018-11-23T01:58:32.009Z,52.53
2018-11-23T02:00:24.989Z,52.06
2018-11-23T02:01:25.037Z,51.77
2018-11-23T02:03:18.020Z,51.96
2018-11-23T02:04:18.063Z,51.75
2018-11-23T02:06:11.050Z,51.39
2018-11-23T02:07:11.104Z,51.09
2018-11-23T02:09:04.079Z,50.99
2018-11-23T02:10:04.126Z,51.09
2018-11-23T02:11:57.100Z,50.52
2018-11-23T02:12:57.152Z,50.90
2018-11-23T02:14:50.134Z,50.07
2018-11-23T02:15:50.181Z,50.04
2018-11-23T02:17:43.159Z,49.66
2018-11-23T02:18:43.202Z,49.66
2018-11-23T02:20:36.182Z,49.76
2018-11-23T02:21:36.236Z,49.76
2018-11-23T02:23:29.239Z,49.95
2018-11-23T02:24:29.263Z,49.48
2018-11-23T02:26:22.236Z,49.10
2018-11-23T02:27:22.292Z,49.10
2018-11-23T02:29:15.268Z,49.10
2018-11-23T02:30:15.314Z,48.82
2018-11-23T02:32:08.282Z,48.82
2018-11-23T02:33:08.335Z,48.72
2018-11-23T02:35:01.314Z,49.29
2018-11-23T02:36:01.361Z,49.19
2018-11-23T02:37:54.353Z,48.91
2018-11-23T02:38:54.386Z,49.01
2018-11-23T02:40:47.359Z,48.91
2018-11-23T02:41:47.414Z,49.19
2018-11-23T02:43:40.394Z,48.63
2018-11-23T02:44:40.440Z,48.63
2018-11-23T02:46:33.417Z,48.63
2018-11-23T02:47:33.470Z,48.44
2018-11-23T02:49:26.452Z,48.06
2018-11-23T02:50:26.498Z,48.15
2018-11-23T02:52:19.472Z,48.34
2018-11-23T02:53:19.525Z,48.44
2018-11-23T02:55:12.500Z,48.15
2018-11-23T02:56:12.552Z,48.06
2018-11-23T02:58:05.546Z,47.87
2018-11-23T02:59:05.595Z,47.68
2018-11-23T03:00:58.575Z,47.68
2018-11-23T03:01:58.622Z,47.77
2018-11-23T03:03:51.600Z,47.39
2018-11-23T03:04:51.650Z,47.68
2018-11-23T03:06:44.623Z,47.11
2018-11-23T03:07:44.677Z,47.11
2018-11-23T03:09:37.653Z,47.20
2018-11-23T03:10:37.702Z,47.58
2018-11-23T03:12:30.675Z,47.77
2018-11-23T03:13:30.727Z,47.87
2018-11-23T03:15:23.703Z,48.25
2018-11-23T03:16:23.751Z,47.96
2018-11-23T03:18:16.730Z,48.53
2018-11-23T03:19:16.771Z,49.01
2018-11-23T03:21:09.757Z,49.10
2018-11-23T03:22:09.804Z,49.19
2018-11-23T03:24:02.784Z,49.85
2018-11-23T03:25:02.833Z,49.66
2018-11-23T03:26:55.802Z,50.04
2018-11-23T03:27:55.855Z,50.40
2018-11-23T03:29:48.840Z,51.09
2018-11-23T03:30:48.886Z,50.71
2018-11-23T03:32:41.859Z,50.61
2018-11-23T03:33:41.913Z,50.78
2018-11-23T03:35:34.890Z,51.15
2018-11-23T03:36:34.938Z,50.87
2018-11-23T03:38:27.910Z,51.15
2018-11-23T03:39:30.428Z,50.78
2018-11-23T03:41:20.943Z,50.87
2018-11-23T03:42:20.993Z,50.87
2018-11-23T03:44:13.976Z,50.99
2018-11-23T03:45:14.018Z,50.80
2018-11-23T03:47:06.989Z,51.09
2018-11-23T03:48:07.043Z,50.80
2018-11-23T03:50:00.047Z,50.78
2018-11-23T03:51:00.076Z,51.06
2018-11-23T03:52:53.041Z,51.37
2018-11-23T03:53:53.099Z,51.53
2018-11-23T03:55:46.069Z,52.29
2018-11-23T03:56:46.117Z,52.38
2018-11-23T03:58:39.091Z,52.86
2018-11-23T03:59:39.146Z,52.67
2018-11-23T04:01:32.121Z,53.14
2018-11-23T04:02:32.170Z,53.05
2018-11-23T04:04:25.152Z,53.14
2018-11-23T04:05:25.197Z,52.86
2018-11-23T04:07:18.169Z,53.05
2018-11-23T04:08:18.229Z,53.05
2018-11-23T04:10:11.206Z,52.76
2018-11-23T04:11:11.250Z,52.48
2018-11-23T04:13:04.227Z,52.48
2018-11-23T04:14:04.274Z,52.86
2018-11-23T04:15:57.250Z,52.95
2018-11-23T04:16:57.298Z,52.86
2018-11-23T04:18:50.270Z,53.23
2018-11-23T04:19:50.320Z,52.86
2018-11-23T04:21:43.303Z,52.38
2018-11-23T04:22:43.354Z,52.86
2018-11-23T04:24:36.323Z,52.29
2018-11-23T04:25:36.370Z,52.57
2018-11-23T04:27:29.343Z,51.81
2018-11-23T04:28:29.400Z,51.91
2018-11-23T04:30:22.373Z,52.38
2018-11-23T04:31:22.421Z,52.76
2018-11-23T04:33:15.389Z,53.14
2018-11-23T04:34:15.443Z,52.86
2018-11-23T04:36:08.419Z,52.95
2018-11-23T04:37:08.467Z,52.86
2018-11-23T04:39:01.436Z,52.57
2018-11-23T04:40:01.490Z,52.86
2018-11-23T04:41:54.467Z,53.05
2018-11-23T04:42:54.513Z,52.95
2018-11-23T04:44:47.490Z,53.33
2018-11-23T04:45:47.538Z,52.67
2018-11-23T04:47:40.511Z,52.76
2018-11-23T04:48:40.564Z,52.57
2018-11-23T04:50:33.555Z,52.76
2018-11-23T04:51:33.591Z,52.38
2018-11-23T04:53:26.564Z,51.72
2018-11-23T04:54:26.615Z,51.91
2018-11-23T04:56:19.595Z,51.72
2018-11-23T04:57:19.642Z,52.76
2018-11-23T04:59:12.621Z,52.95
2018-11-23T05:00:12.675Z,53.05
2018-11-23T05:02:05.649Z,53.61
2018-11-23T05:03:05.697Z,53.61
2018-11-23T05:04:58.674Z,53.61
2018-11-23T05:05:58.719Z,53.05
2018-11-23T05:07:51.692Z,52.95
2018-11-23T05:08:51.745Z,52.76
2018-11-23T05:10:44.723Z,51.91
2018-11-23T05:11:44.771Z,51.62
2018-11-23T05:13:37.743Z,51.06
2018-11-23T05:14:37.792Z,51.25
2018-11-23T05:16:30.805Z,51.34
2018-11-23T05:17:30.816Z,51.25
2018-11-23T05:19:23.787Z,51.34
2018-11-23T05:20:23.841Z,51.34
2018-11-23T05:22:16.817Z,50.78
2018-11-23T05:23:16.864Z,50.87
2018-11-23T05:25:09.838Z,50.30
2018-11-23T05:26:09.957Z,51.06
2018-11-23T05:28:03.361Z,51.15
2018-11-23T05:29:03.417Z,50.96
2018-11-23T05:30:56.397Z,51.72
2018-11-23T05:31:56.442Z,51.53
2018-11-23T05:33:49.411Z,51.25
2018-11-23T05:34:49.464Z,50.96
2018-11-23T05:36:42.439Z,51.25
2018-11-23T05:37:42.487Z,51.62
2018-11-23T05:39:35.452Z,52.29
2018-11-23T05:40:35.507Z,52.76
2018-11-23T05:42:28.484Z,53.14
2018-11-23T05:43:28.530Z,53.05
2018-11-23T05:45:21.507Z,52.48
2018-11-23T05:46:21.575Z,52.29
2018-11-23T05:48:14.524Z,52.67
2018-11-23T05:49:14.577Z,52.67
2018-11-23T05:51:07.560Z,52.38
2018-11-23T05:52:07.607Z,52.48
2018-11-23T05:54:00.581Z,52.57
2018-11-23T05:55:00.629Z,52.95
2018-11-23T05:56:54.121Z,53.14
2018-11-23T05:57:54.167Z,53.05
2018-11-23T05:59:47.148Z,53.05
2018-11-23T06:00:47.189Z,52.86
2018-11-23T06:02:40.165Z,52.48
2018-11-23T06:03:40.212Z,52.57
2018-11-23T06:05:33.190Z,52.38
2018-11-23T06:06:33.236Z,52.29
2018-11-23T06:08:26.209Z,52.86
2018-11-23T06:09:26.260Z,53.42
2018-11-23T06:11:19.283Z,53.89
2018-11-23T06:12:19.289Z,53.99
2018-11-23T06:14:12.259Z,53.99
2018-11-23T06:15:12.309Z,54.37
2018-11-23T06:17:05.286Z,54.65
2018-11-23T06:18:05.333Z,54.93
2018-11-23T06:19:58.304Z,54.55
2018-11-23T06:20:58.357Z,54.46
2018-11-23T06:22:51.844Z,53.70
2018-11-23T06:23:51.886Z,53.52
2018-11-23T06:25:44.865Z,53.61
2018-11-23T06:26:44.912Z,53.05
2018-11-23T06:28:37.882Z,52.95
2018-11-23T06:29:37.934Z,52.67
2018-11-23T06:31:42.529Z,52.57
2018-11-23T06:32:42.576Z,52.76
2018-11-23T06:34:35.551Z,52.86
2018-11-23T06:35:35.606Z,53.14
2018-11-23T06:37:28.584Z,52.76
2018-11-23T06:38:28.631Z,52.67
2018-11-23T06:40:21.602Z,52.48
2018-11-23T06:41:21.655Z,52.48
2018-11-23T06:43:14.637Z,52.76
2018-11-23T06:44:14.683Z,52.29
2018-11-23T06:46:07.668Z,51.91
2018-11-23T06:47:07.710Z,51.53
2018-11-23T06:49:00.680Z,51.72
2018-11-23T06:50:00.733Z,52.00
2018-11-23T06:51:53.710Z,52.00
2018-11-23T06:52:53.757Z,51.81
2018-11-23T06:54:46.745Z,51.62
2018-11-23T06:55:46.796Z,51.15
2018-11-23T06:57:39.773Z,50.96
2018-11-23T06:58:39.819Z,50.21
2018-11-23T07:00:32.791Z,50.21
2018-11-23T07:01:32.860Z,49.73
2018-11-23T07:03:25.824Z,49.92
2018-11-23T07:04:25.880Z,50.02
2018-11-23T07:06:18.884Z,50.40
2018-11-23T07:07:18.893Z,50.96
2018-11-23T07:09:11.865Z,51.06
2018-11-23T07:10:11.919Z,50.87
2018-11-23T07:12:04.908Z,51.62
2018-11-23T07:13:04.944Z,51.81
2018-11-23T07:14:57.921Z,52.38
2018-11-23T07:15:57.973Z,52.38
2018-11-23T07:17:50.996Z,51.62
2018-11-23T07:18:51.000Z,51.81
2018-11-23T07:20:43.968Z,52.48
2018-11-23T07:21:44.021Z,52.48
2018-11-23T07:23:36.998Z,53.23
2018-11-23T07:24:37.046Z,53.61
2018-11-23T07:26:30.021Z,54.18
2018-11-23T07:27:30.067Z,54.37
2018-11-23T07:29:23.057Z,54.46
2018-11-23T07:30:23.098Z,54.65
2018-11-23T07:32:16.580Z,55.03
2018-11-23T07:33:16.624Z,54.84
2018-11-23T07:35:09.593Z,54.08
2018-11-23T07:36:09.646Z,53.61
2018-11-23T07:38:02.622Z,53.80
2018-11-23T07:39:02.676Z,54.37
2018-11-23T07:40:55.645Z,53.42
2018-11-23T07:41:55.693Z,52.95
2018-11-23T07:43:48.670Z,52.86
2018-11-23T07:44:48.718Z,52.00
2018-11-23T07:46:41.709Z,52.76
2018-11-23T07:47:41.741Z,52.03
2018-11-23T07:49:34.717Z,52.31
2018-11-23T07:50:34.771Z,53.45
2018-11-23T07:52:27.755Z,55.53
2018-11-23T07:53:27.803Z,55.63
2018-11-23T07:55:20.765Z,57.35
2018-11-23T07:56:20.832Z,58.68
2018-11-23T07:58:13.798Z,60.48
2018-11-23T07:59:13.843Z,60.48
2018-11-23T08:01:06.816Z,61.61
2018-11-23T08:02:06.868Z,62.18
2018-11-23T08:03:59.848Z,64.87
2018-11-23T08:04:59.896Z,67.71
2018-11-23T08:06:52.871Z,71.34
2018-11-23T08:07:52.929Z,72.67
2018-11-23T08:09:45.945Z,70.74
2018-11-23T08:10:45.958Z,70.17
2018-11-23T08:12:38.934Z,73.43
2018-11-23T08:13:38.977Z,73.99
2018-11-23T08:15:31.948Z,77.45
2018-11-23T08:16:32.003Z,78.49
2018-11-23T08:18:24.980Z,82.32
2018-11-23T08:19:25.029Z,85.26
2018-11-23T08:21:18.018Z,87.30
2018-11-23T08:22:18.061Z,88.62
2018-11-23T08:24:11.092Z,89.90
2018-11-23T08:25:11.106Z,90.00
2018-11-23T08:27:04.085Z,90.66
2018-11-23T08:28:04.133Z,89.76
2018-11-23T08:29:57.126Z,89.24
2018-11-23T08:30:57.167Z,90.05
2018-11-23T08:32:50.341Z,87.77
2018-11-23T08:33:50.188Z,87.01
2018-11-23T08:35:43.160Z,87.58
2018-11-23T08:36:43.192Z,86.35
2018-11-23T08:38:36.171Z,87.20
2018-11-23T08:39:36.227Z,87.77
2018-11-23T08:41:29.184Z,84.98
2018-11-23T08:42:29.243Z,84.22
2018-11-23T08:44:22.220Z,81.75
2018-11-23T08:45:22.268Z,81.09
2018-11-23T08:47:15.242Z,80.43
2018-11-23T08:48:15.294Z,78.58
2018-11-23T08:50:08.273Z,74.85
2018-11-23T08:51:08.319Z,71.25
2018-11-23T08:53:01.295Z,67.08
2018-11-23T08:54:01.344Z,64.90
2018-11-23T08:55:54.319Z,63.10
2018-11-23T08:56:54.376Z,62.24
2018-11-23T08:58:47.352Z,61.83
2018-11-23T08:59:47.661Z,59.84
2018-11-23T09:01:40.370Z,58.14
2018-11-23T09:02:40.424Z,57.86
2018-11-23T09:04:33.403Z,57.57
2018-11-23T09:05:33.450Z,56.72
2018-11-23T09:07:26.423Z,57.20
2018-11-23T09:08:26.476Z,57.39
2018-11-23T09:10:19.455Z,56.34
2018-11-23T09:11:19.500Z,56.53
2018-11-23T09:13:12.485Z,55.96
2018-11-23T09:14:12.533Z,56.72
2018-11-23T09:16:05.513Z,58.26
2018-11-23T09:17:05.559Z,58.90
2018-11-23T09:18:58.538Z,57.95
2018-11-23T09:19:58.586Z,57.29
2018-11-23T09:21:51.557Z,55.58
2018-11-23T09:22:51.611Z,54.74
2018-11-23T09:24:44.593Z,53.88
2018-11-23T09:25:44.640Z,53.41
2018-11-23T09:27:37.612Z,52.84
2018-11-23T09:28:37.665Z,52.65
2018-11-23T09:30:30.641Z,52.65
2018-11-23T09:31:30.693Z,52.08
2018-11-23T09:33:23.671Z,52.08
2018-11-23T09:34:23.718Z,53.03
2018-11-23T09:36:16.690Z,52.87
2018-11-23T09:37:16.743Z,52.48
2018-11-23T09:39:09.721Z,53.53
2018-11-23T09:40:09.772Z,54.28
2018-11-23T09:42:02.755Z,55.33
2018-11-23T09:43:02.807Z,55.52
2018-11-23T09:44:55.791Z,55.62
2018-11-23T09:45:55.836Z,55.80
2018-11-23T09:47:48.814Z,57.23
2018-11-23T09:48:48.859Z,57.42
2018-11-23T09:50:41.859Z,57.51
2018-11-23T09:51:41.888Z,57.23
2018-11-23T09:53:34.868Z,56.37
2018-11-23T09:54:34.914Z,56.56
2018-11-23T09:56:27.884Z,56.66
2018-11-23T09:57:27.940Z,56.46
2018-11-23T09:59:20.917Z,58.20
2018-11-23T10:00:20.965Z,58.11
2018-11-23T10:02:13.940Z,58.96
2018-11-23T10:03:13.994Z,59.53
2018-11-23T10:05:07.049Z,58.77
2018-11-23T10:06:07.023Z,58.67
2018-11-23T10:07:59.997Z,58.48
2018-11-23T10:09:00.047Z,57.44
2018-11-23T10:10:53.033Z,60.47
2018-11-23T10:11:53.079Z,59.91
2018-11-23T10:13:46.058Z,60.19
2018-11-23T10:14:46.107Z,61.71
2018-11-23T10:16:39.097Z,63.23
2018-11-23T10:17:39.144Z,63.32
2018-11-23T10:19:32.121Z,63.42
2018-11-23T10:20:32.169Z,63.51
2018-11-23T10:22:25.156Z,64.08
2018-11-23T10:23:25.196Z,63.89
2018-11-23T10:25:18.176Z,64.11
2018-11-23T10:26:18.223Z,65.72
2018-11-23T10:28:11.188Z,65.50
2018-11-23T10:29:11.254Z,65.31
2018-11-23T10:31:04.231Z,64.87
2018-11-23T10:32:04.305Z,62.97
2018-11-23T10:33:57.265Z,65.53
2018-11-23T10:34:57.314Z,66.86
2018-11-23T10:36:50.284Z,65.34
2018-11-23T10:37:50.350Z,64.40
2018-11-23T10:39:43.318Z,67.24
2018-11-23T10:40:43.539Z,67.33
2018-11-23T10:42:36.341Z,66.86
2018-11-23T10:43:36.394Z,66.67
2018-11-23T10:45:29.380Z,66.77
2018-11-23T10:46:29.425Z,66.20
2018-11-23T10:48:22.401Z,68.85
2018-11-23T10:49:22.455Z,69.42
2018-11-23T10:51:15.429Z,68.95
2018-11-23T10:52:15.481Z,68.38
2018-11-23T10:54:09.291Z,68.29
2018-11-23T10:55:08.517Z,68.00
2018-11-23T10:57:01.578Z,69.52
2018-11-23T10:58:01.542Z,69.33
2018-11-23T10:59:54.528Z,69.90
2018-11-23T11:00:54.572Z,70.50
2018-11-23T11:02:47.557Z,70.03
2018-11-23T11:03:47.607Z,69.46
2018-11-23T11:05:40.597Z,70.12
2018-11-23T11:06:40.695Z,71.36
2018-11-23T11:08:33.630Z,70.31
2018-11-23T11:09:33.681Z,71.45
2018-11-23T11:11:26.674Z,70.40
2018-11-23T11:12:26.720Z,70.12
2018-11-23T11:14:19.708Z,69.46
2018-11-23T11:15:19.751Z,71.36
2018-11-23T11:17:12.727Z,72.68
2018-11-23T11:18:12.784Z,73.92
2018-11-23T11:20:05.770Z,73.00
2018-11-23T11:21:05.811Z,74.81
2018-11-23T11:22:58.787Z,71.77
2018-11-23T11:23:58.842Z,75.09
2018-11-23T11:25:51.822Z,75.47
2018-11-23T11:26:51.869Z,75.15
2018-11-23T11:28:44.861Z,74.52
2018-11-23T11:29:44.925Z,74.90
2018-11-23T11:31:37.892Z,75.00
2018-11-23T11:32:37.938Z,75.19
2018-11-23T11:34:30.934Z,77.18
2018-11-23T11:35:30.970Z,76.52
2018-11-23T11:37:24.038Z,76.65
2018-11-23T11:38:24.969Z,78.61
2018-11-23T11:40:16.983Z,76.56
2018-11-23T11:41:17.032Z,77.84
2018-11-23T11:43:10.593Z,77.94
2018-11-23T11:44:10.641Z,75.60
2018-11-23T11:46:03.827Z,77.98
2018-11-23T11:47:03.946Z,77.79
2018-11-23T11:48:56.681Z,79.03
2018-11-23T11:49:59.127Z,79.79
2018-11-23T11:51:49.699Z,78.64
2018-11-23T11:52:49.751Z,79.12
2018-11-23T11:54:42.723Z,77.60
2018-11-23T11:55:42.780Z,78.42
2018-11-23T11:57:35.950Z,76.52
2018-11-23T11:58:35.907Z,76.32
2018-11-23T12:00:29.303Z,75.00
2018-11-23T12:01:29.355Z,76.32
2018-11-23T12:03:22.331Z,75.67
2018-11-23T12:04:23.041Z,75.28
2018-11-23T12:06:15.572Z,76.18
2018-11-23T12:07:15.604Z,77.98
2018-11-23T12:09:08.401Z,78.36
2018-11-23T12:10:08.457Z,78.64
2018-11-23T12:12:01.452Z,77.41
2018-11-23T12:13:01.488Z,77.31
2018-11-23T12:14:54.466Z,79.22
2018-11-23T12:15:54.524Z,79.12
2018-11-23T12:17:47.511Z,78.17
2018-11-23T12:18:47.555Z,79.03
2018-11-23T12:20:40.530Z,77.98
2018-11-23T12:21:40.585Z,78.27
2018-11-23T12:23:33.705Z,80.35
2018-11-23T12:24:33.615Z,79.50
2018-11-23T12:26:26.615Z,79.50
2018-11-23T12:27:29.325Z,80.26
2018-11-23T12:29:19.646Z,81.35
2018-11-23T12:30:19.701Z,80.83
2018-11-23T12:32:12.689Z,79.88
2018-11-23T12:33:12.734Z,80.58
2018-11-23T12:35:05.717Z,79.69
2018-11-23T12:36:05.763Z,79.60
2018-11-23T12:37:59.254Z,80.30
2018-11-23T12:38:59.302Z,79.41
2018-11-23T12:40:52.279Z,80.49
2018-11-23T12:41:52.336Z,80.30
2018-11-23T12:43:45.325Z,79.54
2018-11-23T12:44:45.367Z,79.06
2018-11-23T12:46:38.346Z,80.21
2018-11-23T12:47:38.405Z,79.83
2018-11-23T12:49:31.448Z,79.44
2018-11-23T12:50:31.515Z,79.54
2018-11-23T12:52:24.432Z,80.87
2018-11-23T12:53:24.481Z,79.25
2018-11-23T12:55:17.496Z,78.88
2018-11-23T12:56:17.641Z,78.97
2018-11-23T12:58:10.518Z,78.78
2018-11-23T12:59:10.601Z,80.87
2018-11-23T13:01:03.550Z,78.88
2018-11-23T13:02:03.600Z,79.63
2018-11-23T13:03:56.589Z,79.83
2018-11-23T13:04:56.631Z,79.63
2018-11-23T13:06:49.626Z,79.25
2018-11-23T13:07:49.680Z,79.44
2018-11-23T13:09:42.660Z,80.30
2018-11-23T13:10:43.105Z,79.73
2018-11-23T13:12:35.717Z,80.40
2018-11-23T13:13:35.744Z,79.83
2018-11-23T13:15:29.232Z,79.16
2018-11-23T13:16:29.282Z,79.35
2018-11-23T13:18:22.775Z,80.02
2018-11-23T13:19:22.827Z,79.63
2018-11-23T13:21:15.841Z,79.63
2018-11-23T13:22:15.863Z,79.54
2018-11-23T13:24:08.849Z,79.54
2018-11-23T13:25:08.899Z,78.97
2018-11-23T13:27:01.889Z,79.54
2018-11-23T13:28:01.933Z,79.68
2018-11-23T13:29:54.906Z,80.24
2018-11-23T13:30:54.963Z,80.87
2018-11-23T13:32:47.948Z,80.34
2018-11-23T13:33:47.998Z,79.49
2018-11-23T13:35:40.979Z,79.92
2018-11-23T13:36:41.038Z,79.49
2018-11-23T13:38:34.021Z,79.54
2018-11-23T13:39:34.070Z,79.30
2018-11-23T13:41:27.047Z,79.63
2018-11-23T13:42:27.104Z,80.15
2018-11-23T13:44:20.595Z,79.44
2018-11-23T13:45:20.646Z,79.58
2018-11-23T13:47:13.627Z,78.40
2018-11-23T13:48:19.802Z,79.35
2018-11-23T13:50:06.676Z,79.16
2018-11-23T13:51:06.722Z,78.63
2018-11-23T13:52:59.719Z,78.82
2018-11-23T13:53:59.751Z,78.97
2018-11-23T13:55:52.726Z,78.50
2018-11-23T13:56:52.783Z,78.30
2018-11-23T13:58:45.813Z,79.25
2018-11-23T13:59:45.823Z,79.01
2018-11-23T14:01:38.854Z,78.06
2018-11-23T14:02:38.870Z,78.97
2018-11-23T14:04:31.854Z,78.30
2018-11-23T14:05:31.905Z,78.50
2018-11-23T14:07:24.897Z,78.59
2018-11-23T14:08:24.949Z,77.83
2018-11-23T14:10:17.926Z,78.59
2018-11-23T14:11:17.984Z,77.92
2018-11-23T14:13:11.571Z,77.83
2018-11-23T14:14:11.054Z,78.02
2018-11-23T14:16:04.073Z,77.45
2018-11-23T14:17:04.110Z,77.45
2018-11-23T14:18:57.079Z,77.45
2018-11-23T14:19:57.131Z,77.45
2018-11-23T14:21:50.117Z,77.64
2018-11-23T14:22:50.175Z,77.55
2018-11-23T14:24:43.161Z,76.88
2018-11-23T14:25:43.207Z,76.78
2018-11-23T14:27:36.203Z,75.84
2018-11-23T14:28:36.251Z,76.97
2018-11-23T14:30:29.230Z,76.78
2018-11-23T14:31:29.286Z,75.84
2018-11-23T14:33:22.278Z,75.93
2018-11-23T14:34:22.328Z,75.45
2018-11-23T14:36:15.302Z,76.12
2018-11-23T14:37:15.360Z,75.93
2018-11-23T14:39:08.338Z,75.45
2018-11-23T14:40:08.388Z,75.64
2018-11-23T14:42:01.368Z,74.98
2018-11-23T14:43:01.421Z,74.60
2018-11-23T14:44:54.406Z,74.66
2018-11-23T14:45:54.453Z,74.47
2018-11-23T14:47:47.437Z,74.56
2018-11-23T14:48:47.491Z,74.98
2018-11-23T14:50:40.467Z,75.26
2018-11-23T14:51:40.524Z,74.66
2018-11-23T14:53:33.514Z,74.88
2018-11-23T14:54:33.556Z,75.04
2018-11-23T14:56:26.530Z,74.66
2018-11-23T14:57:26.587Z,74.56
2018-11-23T14:59:19.572Z,73.52
2018-11-23T15:00:19.627Z,73.80
2018-11-23T15:02:12.595Z,73.42
2018-11-23T15:03:12.657Z,73.04
2018-11-23T15:05:05.642Z,72.56
2018-11-23T15:06:05.686Z,72.56
2018-11-23T15:07:58.674Z,72.75
2018-11-23T15:08:58.718Z,73.61
2018-11-23T15:10:51.694Z,73.14
2018-11-23T15:11:51.750Z,73.04
2018-11-23T15:13:44.733Z,72.75
2018-11-23T15:14:44.784Z,72.28
2018-11-23T15:16:37.869Z,71.43
2018-11-23T15:17:37.937Z,71.67
2018-11-23T15:19:30.903Z,70.63
2018-11-23T15:20:30.953Z,70.35
2018-11-23T15:22:23.929Z,70.54
2018-11-23T15:23:23.985Z,70.06
2018-11-23T15:25:16.975Z,69.78
2018-11-23T15:26:17.150Z,69.11
2018-11-23T15:28:10.010Z,69.11
2018-11-23T15:29:10.058Z,68.92
2018-11-23T15:31:03.039Z,69.11
2018-11-23T15:32:03.095Z,68.64
2018-11-23T15:33:56.082Z,67.79
2018-11-23T15:34:56.130Z,68.07
2018-11-23T15:36:49.104Z,67.31
2018-11-23T15:37:49.160Z,67.02
2018-11-23T15:39:42.142Z,66.93
2018-11-23T15:40:42.193Z,67.02
2018-11-23T15:42:35.172Z,66.55
2018-11-23T15:43:35.224Z,66.93
2018-11-23T15:45:28.221Z,66.17
2018-11-23T15:46:28.272Z,66.14
2018-11-23T15:48:21.255Z,65.95
2018-11-23T15:49:21.302Z,65.37
2018-11-23T15:51:14.281Z,66.33
2018-11-23T15:52:14.338Z,66.61
2018-11-23T15:54:07.317Z,65.66
2018-11-23T15:55:07.365Z,65.66
2018-11-23T15:57:00.342Z,65.47
2018-11-23T15:58:00.396Z,65.09
2018-11-23T15:59:53.375Z,64.90
2018-11-23T16:00:53.425Z,64.24
2018-11-23T16:02:46.405Z,64.05
2018-11-23T16:03:46.463Z,64.43
2018-11-23T16:05:39.949Z,64.33
2018-11-23T16:06:40.045Z,64.14
2018-11-23T16:08:32.984Z,63.01
2018-11-23T16:09:33.032Z,62.62
2018-11-23T16:11:26.007Z,62.15
2018-11-23T16:12:26.064Z,62.34
2018-11-23T16:14:19.053Z,63.01
2018-11-23T16:15:19.097Z,63.10
2018-11-23T16:17:12.076Z,62.21
2018-11-23T16:18:12.129Z,62.50
2018-11-23T16:20:05.112Z,62.50
2018-11-23T16:21:05.422Z,61.74
2018-11-23T16:22:58.134Z,61.65
2018-11-23T16:23:58.191Z,61.65
2018-11-23T16:25:51.172Z,60.98
2018-11-23T16:26:51.222Z,59.94
2018-11-23T16:28:44.715Z,59.27
2018-11-23T16:29:44.763Z,60.03
2018-11-23T16:31:37.730Z,59.94
2018-11-23T16:32:37.796Z,60.31
2018-11-23T16:34:30.774Z,60.41
2018-11-23T16:35:30.826Z,59.84
2018-11-23T16:37:23.815Z,59.27
2018-11-23T16:38:23.860Z,59.34
2018-11-23T16:40:16.847Z,59.34
2018-11-23T16:41:16.891Z,58.86
2018-11-23T16:43:09.868Z,58.20
2018-11-23T16:44:09.924Z,57.35
2018-11-23T16:46:02.907Z,56.78
2018-11-23T16:47:02.958Z,56.78
2018-11-23T16:48:55.949Z,56.21
2018-11-23T16:49:55.998Z,54.98
2018-11-23T16:51:48.980Z,54.98
2018-11-23T16:52:49.034Z,54.41
2018-11-23T16:54:42.023Z,54.79
2018-11-23T16:55:42.069Z,54.69
2018-11-23T16:57:35.043Z,54.79
2018-11-23T16:58:35.098Z,55.17
2018-11-23T17:00:28.080Z,55.36
2018-11-23T17:01:28.128Z,55.17
2018-11-23T17:03:21.107Z,54.41
2018-11-23T17:04:21.158Z,54.69
2018-11-23T17:06:14.152Z,54.69
2018-11-23T17:07:14.198Z,54.60
2018-11-23T17:09:07.178Z,55.64
2018-11-23T17:10:07.228Z,54.98
2018-11-23T17:12:00.202Z,55.55
2018-11-23T17:13:00.258Z,55.74
2018-11-23T17:14:53.237Z,55.45
2018-11-23T17:15:53.291Z,55.74
2018-11-23T17:17:46.265Z,54.88
2018-11-23T17:18:46.321Z,54.88
2018-11-23T17:20:39.309Z,54.41
2018-11-23T17:21:39.354Z,54.60
2018-11-23T17:23:32.329Z,54.60
2018-11-23T17:24:32.383Z,54.98
2018-11-23T17:26:25.874Z,54.88
2018-11-23T17:27:25.922Z,54.60
2018-11-23T17:29:23.200Z,54.50
2018-11-23T17:30:18.973Z,54.41
2018-11-23T17:32:12.024Z,54.79
2018-11-23T17:33:11.991Z,55.36
2018-11-23T17:35:04.973Z,54.41
2018-11-23T17:36:05.020Z,54.50
2018-11-23T17:37:57.996Z,53.75
2018-11-23T17:38:58.058Z,54.03
2018-11-23T17:40:51.037Z,53.46
2018-11-23T17:41:51.081Z,53.56
2018-11-23T17:43:44.056Z,53.46
2018-11-23T17:44:44.111Z,53.27
2018-11-23T17:46:37.101Z,52.89
2018-11-23T17:47:37.146Z,52.89
2018-11-23T17:49:30.638Z,53.08
2018-11-23T17:50:30.686Z,52.51
2018-11-23T17:52:23.672Z,53.18
2018-11-23T17:53:23.719Z,52.89
2018-11-23T17:55:16.703Z,53.18
2018-11-23T17:56:16.751Z,52.80
2018-11-23T17:58:09.738Z,52.42
2018-11-23T17:59:09.781Z,52.70
2018-11-23T18:01:02.771Z,52.51
2018-11-23T18:02:02.816Z,52.51
2018-11-23T18:03:55.789Z,52.61
2018-11-23T18:04:55.844Z,51.76
2018-11-23T18:06:48.827Z,51.95
2018-11-23T18:07:48.883Z,51.66
2018-11-23T18:09:41.847Z,51.95
2018-11-23T18:10:41.908Z,52.23
2018-11-23T18:12:34.887Z,51.64
2018-11-23T18:13:34.931Z,52.01
2018-11-23T18:15:27.910Z,51.73
2018-11-23T18:16:27.961Z,51.64
2018-11-23T18:18:20.941Z,51.54
2018-11-23T18:19:20.991Z,51.54
2018-11-23T18:21:13.981Z,51.45
2018-11-23T18:22:14.024Z,51.45
2018-11-23T18:24:07.004Z,51.45
2018-11-23T18:25:07.054Z,50.78
2018-11-23T18:27:00.039Z,51.45
2018-11-23T18:28:00.096Z,51.26
2018-11-23T18:29:53.080Z,51.07
2018-11-23T18:30:53.120Z,51.26
2018-11-23T18:32:46.108Z,51.16
2018-11-23T18:33:46.157Z,51.16